This is the latest recevied weather packets stored in our database for station/object W5HKR. If no packets are shown the sender has not sent any weather packets the latest 10 day(s).
| Time | Temp. | Humidity | Pressure | Rain* | Wind** | Luminosity | Snow |
|---|---|---|---|---|---|---|---|
| 1777714698 | 10.56° C | 91% | 989.8 hPa | 0 mm | - | - | - |
| 1777714398 | 10.56° C | 91% | 990.1 hPa | 0 mm | - | - | - |
| 1777714101 | 18.33° C | 91% | 990.6 hPa | 0 mm | - | - | - |
| 1777714070 | 18.33° C | 91% | 990.6 hPa | 0 mm | - | - | - |
| 1777713800 | 11.11° C | 90% | 989.8 hPa | 0 mm | - | - | - |
| 1777713499 | 18.33° C | 91% | 990.6 hPa | 0 mm | - | - | - |
| 1777713199 | 18.33° C | 91% | 990.6 hPa | 0 mm | - | - | - |
| 1777712990 | 11.11° C | 90% | 989.8 hPa | 0 mm | - | - | - |
| 1777712598 | 11.11° C | 90% | 989.8 hPa | 0 mm | - | - | - |
| 1777712298 | 18.33° C | 91% | 990.6 hPa | 0 mm | - | - | - |
| 1777711909 | 11.11° C | 90% | 989.8 hPa | 0 mm | - | - | - |
| 1777711698 | 18.33° C | 91% | 990.6 hPa | 0 mm | - | - | - |
| 1777711400 | 11.11° C | 90% | 989.5 hPa | 0 mm | - | - | - |
| 1777711100 | 18.33° C | 91% | 990.6 hPa | 0 mm | - | - | - |
| 1777710829 | 18.33° C | 91% | 990.6 hPa | 0 mm | - | - | - |
| 1777710799 | 18.33° C | 91% | 990.6 hPa | 0 mm | - | - | - |
| 1777710499 | 11.11° C | 91% | 989.1 hPa | 0 mm | - | - | - |
| 1777710199 | 18.33° C | 91% | 990.6 hPa | 0 mm | - | - | - |
| 1777709899 | 10.56° C | 91% | 989.2 hPa | 0 mm | - | - | - |
| 1777709749 | 18.33° C | 91% | 990.6 hPa | 0 mm | - | - | - |
| 1777709599 | 18.33° C | 91% | 990.6 hPa | 0 mm | - | - | - |
| 1777709299 | 18.33° C | 91% | 990.6 hPa | 0 mm | - | - | - |
| 1777708998 | 18.33° C | 91% | 990.6 hPa | 0 mm | - | - | - |
| 1777708669 | 18.33° C | 91% | 990.6 hPa | 0 mm | - | - | - |
| 1777708399 | 11.67° C | 89% | 989 hPa | 0 mm | - | - | - |
* Rain latest hour (hover to see other rain measurements)
** Current wind speed in m/s (hover to see current wind gust speed)